createdAt,value
2023-04-26T00:02:21.986Z,100.00
2023-04-26T00:07:52.892Z,100.00
2023-04-26T00:13:08.450Z,100.00
2023-04-26T00:15:41.324Z,100.00
2023-04-26T00:18:15.777Z,100.00
2023-04-26T00:20:48.285Z,100.00
2023-04-26T00:23:22.465Z,100.00
2023-04-26T00:25:55.937Z,100.00
2023-04-26T00:28:26.297Z,100.00
2023-04-26T00:30:57.835Z,100.00
2023-04-26T00:36:24.716Z,100.00
2023-04-26T00:38:55.912Z,100.00
2023-04-26T00:41:37.021Z,100.00
2023-04-26T00:44:11.142Z,100.00
2023-04-26T00:46:46.781Z,100.00
2023-04-26T00:49:20.391Z,100.00
2023-04-26T00:51:53.963Z,100.00
2023-04-26T00:54:24.831Z,100.00
2023-04-26T00:56:55.849Z,100.00
2023-04-26T00:59:26.660Z,100.00
2023-04-26T01:02:03.853Z,100.00
2023-04-26T01:04:42.319Z,100.00
2023-04-26T01:07:15.688Z,100.00
2023-04-26T01:09:55.504Z,100.00
2023-04-26T01:12:35.288Z,100.00
2023-04-26T01:15:08.937Z,100.00
2023-04-26T01:17:42.819Z,100.00
2023-04-26T01:20:13.665Z,100.00
2023-04-26T01:22:44.819Z,100.00
2023-04-26T01:25:20.917Z,100.00
2023-04-26T01:27:54.217Z,100.00
2023-04-26T01:30:29.043Z,100.00
2023-04-26T01:32:59.089Z,100.00
2023-04-26T01:35:31.762Z,100.00
2023-04-26T01:38:04.837Z,100.00
2023-04-26T01:40:36.453Z,100.00
2023-04-26T01:43:09.966Z,100.00
2023-04-26T01:45:41.716Z,100.00
2023-04-26T01:48:38.017Z,100.00
2023-04-26T01:51:12.916Z,100.00
2023-04-26T01:53:43.633Z,100.00
2023-04-26T01:56:20.359Z,100.00
2023-04-26T01:58:51.924Z,100.00
2023-04-26T02:01:26.767Z,100.00
2023-04-26T02:04:01.601Z,100.00
2023-04-26T02:06:31.903Z,100.00
2023-04-26T02:09:02.388Z,100.00
2023-04-26T02:11:39.784Z,100.00
2023-04-26T02:14:11.624Z,100.00
2023-04-26T02:16:48.413Z,100.00
2023-04-26T02:19:28.530Z,100.00
2023-04-26T02:22:09.597Z,100.00
2023-04-26T02:24:43.438Z,100.00
2023-04-26T02:27:30.851Z,100.00
2023-04-26T02:30:04.611Z,100.00
2023-04-26T02:35:26.077Z,100.00
2023-04-26T02:38:00.061Z,100.00
2023-04-26T02:40:31.135Z,100.00
2023-04-26T02:43:05.463Z,100.00
2023-04-26T02:45:36.685Z,100.00
2023-04-26T02:48:08.500Z,100.00
2023-04-26T02:50:43.411Z,100.00
2023-04-26T02:53:24.851Z,100.00
2023-04-26T02:56:02.347Z,100.00
2023-04-26T02:58:35.884Z,100.00
2023-04-26T03:01:07.217Z,100.00
2023-04-26T03:03:37.656Z,100.00
2023-04-26T03:06:10.513Z,100.00
2023-04-26T03:08:42.414Z,100.00
2023-04-26T03:11:14.164Z,100.00
2023-04-26T03:13:44.139Z,100.00
2023-04-26T03:16:29.751Z,100.00
2023-04-26T03:19:00.456Z,100.00
2023-04-26T03:21:35.183Z,100.00
2023-04-26T03:26:51.608Z,100.00
2023-04-26T03:29:24.429Z,100.00
2023-04-26T03:31:57.979Z,100.00
2023-04-26T03:34:31.111Z,100.00
2023-04-26T03:37:07.961Z,100.00
2023-04-26T03:39:44.115Z,100.00
2023-04-26T03:42:13.304Z,100.00
2023-04-26T03:44:43.781Z,100.00
2023-04-26T03:47:19.702Z,100.00
2023-04-26T03:49:53.314Z,100.00
2023-04-26T03:52:31.972Z,100.00
2023-04-26T03:55:05.728Z,100.00
2023-04-26T03:57:44.216Z,100.00
2023-04-26T04:00:13.904Z,100.00
2023-04-26T04:02:55.756Z,100.00
2023-04-26T04:05:29.308Z,100.00
2023-04-26T04:08:00.243Z,100.00
2023-04-26T04:10:33.008Z,100.00
2023-04-26T04:13:04.874Z,100.00
2023-04-26T04:15:49.755Z,100.00
2023-04-26T04:18:24.404Z,100.00
2023-04-26T04:20:55.238Z,100.00
2023-04-26T04:23:36.628Z,100.00
2023-04-26T04:26:10.691Z,100.00
2023-04-26T04:28:40.120Z,100.00
2023-04-26T04:31:16.767Z,100.00
2023-04-26T04:33:54.349Z,100.00
2023-04-26T04:36:24.691Z,100.00
2023-04-26T04:39:00.300Z,100.00
2023-04-26T04:41:36.476Z,100.00
2023-04-26T04:46:57.068Z,100.00
2023-04-26T04:49:29.157Z,100.00
2023-04-26T04:51:57.736Z,100.00
2023-04-26T04:57:28.175Z,100.00
2023-04-26T05:00:08.027Z,100.00
2023-04-26T05:02:40.697Z,100.00
2023-04-26T05:05:37.353Z,100.00
2023-04-26T05:08:11.266Z,100.00
2023-04-26T05:10:42.075Z,100.00
2023-04-26T05:13:12.639Z,100.00
2023-04-26T05:15:45.733Z,100.00
2023-04-26T05:18:17.463Z,100.00
2023-04-26T05:20:56.510Z,100.00
2023-04-26T05:23:27.465Z,100.00
2023-04-26T05:26:00.226Z,100.00
2023-04-26T05:29:07.860Z,100.00
2023-04-26T05:31:57.006Z,100.00
2023-04-26T05:34:47.236Z,100.00
2023-04-26T05:37:32.891Z,100.00
2023-04-26T05:40:08.022Z,100.00
2023-04-26T05:42:52.796Z,100.00
2023-04-26T05:45:25.817Z,100.00
2023-04-26T05:47:59.328Z,100.00
2023-04-26T05:50:30.429Z,100.00
2023-04-26T05:53:07.069Z,100.00
2023-04-26T05:55:40.669Z,100.00
2023-04-26T05:58:12.215Z,100.00
2023-04-26T06:00:47.776Z,100.00
2023-04-26T06:03:29.566Z,100.00
2023-04-26T06:06:04.996Z,100.00
2023-04-26T06:08:35.558Z,100.00
2023-04-26T06:11:04.159Z,100.00
2023-04-26T06:13:42.928Z,100.00
2023-04-26T06:16:17.786Z,100.00
2023-04-26T06:18:49.662Z,100.00
2023-04-26T06:21:20.680Z,100.00
2023-04-26T06:23:54.660Z,100.00
2023-04-26T06:27:08.267Z,100.00
2023-04-26T06:29:49.044Z,100.00
2023-04-26T06:32:18.367Z,100.00
2023-04-26T06:34:52.224Z,100.00
2023-04-26T06:37:30.680Z,100.00
2023-04-26T06:40:05.559Z,100.00
2023-04-26T06:42:44.316Z,100.00
2023-04-26T06:45:27.939Z,100.00
2023-04-26T06:48:03.240Z,100.00
2023-04-26T06:50:41.638Z,100.00
2023-04-26T06:53:09.705Z,100.00
2023-04-26T06:55:55.683Z,100.00
2023-04-26T06:58:26.723Z,100.00
2023-04-26T07:01:13.062Z,100.00
2023-04-26T07:03:47.422Z,100.00
2023-04-26T07:09:10.926Z,100.00
2023-04-26T07:11:49.887Z,100.00
2023-04-26T07:14:24.233Z,100.00
2023-04-26T07:16:54.502Z,100.00
2023-04-26T07:19:26.845Z,100.00
2023-04-26T07:21:58.556Z,100.00
2023-04-26T07:24:34.297Z,100.00
2023-04-26T07:27:06.460Z,100.00
2023-04-26T07:29:38.949Z,100.00
2023-04-26T07:32:20.456Z,100.00
2023-04-26T07:34:56.427Z,100.00
2023-04-26T07:37:35.249Z,100.00
2023-04-26T07:40:09.064Z,100.00
2023-04-26T07:42:40.823Z,100.00
2023-04-26T07:45:19.043Z,100.00
2023-04-26T07:47:46.822Z,100.00
2023-04-26T07:50:17.706Z,100.00
2023-04-26T07:52:54.292Z,100.00
2023-04-26T07:55:22.115Z,100.00
2023-04-26T07:57:55.402Z,100.00
2023-04-26T08:00:28.046Z,100.00
2023-04-26T08:03:14.550Z,100.00
2023-04-26T08:05:43.690Z,100.00
2023-04-26T08:08:26.240Z,100.00
2023-04-26T08:10:59.540Z,100.00
2023-04-26T08:13:30.888Z,100.00
2023-04-26T08:16:07.959Z,100.00
2023-04-26T08:18:52.339Z,100.00
2023-04-26T08:21:22.799Z,100.00
2023-04-26T08:23:54.307Z,100.00
2023-04-26T08:26:26.750Z,100.00
2023-04-26T08:29:00.667Z,100.00
2023-04-26T08:31:33.548Z,100.00
2023-04-26T08:34:04.182Z,100.00
2023-04-26T08:36:40.850Z,100.00
2023-04-26T08:39:27.115Z,100.00
2023-04-26T08:42:00.857Z,100.00
2023-04-26T08:44:48.927Z,100.00
2023-04-26T08:47:43.578Z,100.00
2023-04-26T08:50:22.529Z,100.00
2023-04-26T08:52:58.724Z,100.00
2023-04-26T08:55:46.019Z,100.00
2023-04-26T09:03:47.367Z,100.00
2023-04-26T09:06:17.726Z,100.00
2023-04-26T09:08:49.101Z,100.00
2023-04-26T09:11:26.132Z,100.00
2023-04-26T09:13:56.888Z,100.00
2023-04-26T09:16:40.242Z,100.00
2023-04-26T09:22:05.088Z,100.00
2023-04-26T09:27:49.658Z,100.00
2023-04-26T09:30:23.207Z,90.60
2023-04-26T09:33:11.859Z,89.75
2023-04-26T09:35:44.166Z,99.65
2023-04-26T09:38:17.809Z,100.00
2023-04-26T09:41:02.175Z,90.55
2023-04-26T09:43:43.304Z,82.72
2023-04-26T09:46:16.656Z,75.99
2023-04-26T09:48:46.646Z,80.95
2023-04-26T09:51:20.908Z,73.20
2023-04-26T09:53:54.978Z,79.70
2023-04-26T09:56:26.571Z,73.60
2023-04-26T09:59:05.770Z,79.82
2023-04-26T10:01:40.939Z,89.38
2023-04-26T10:04:10.666Z,100.00
2023-04-26T10:06:39.694Z,100.00
2023-04-26T10:12:09.016Z,100.00
2023-04-26T10:14:42.648Z,100.00
2023-04-26T10:17:14.964Z,93.05
2023-04-26T10:19:48.393Z,100.00
2023-04-26T10:22:31.518Z,100.00
2023-04-26T10:25:01.170Z,94.45
2023-04-26T10:28:02.110Z,100.00
2023-04-26T10:30:40.783Z,84.75
2023-04-26T10:33:21.464Z,80.35
2023-04-26T10:36:16.941Z,77.47
2023-04-26T10:39:36.341Z,83.16
2023-04-26T10:42:36.054Z,87.84
2023-04-26T10:45:47.169Z,100.00
2023-04-26T10:48:27.213Z,72.62
2023-04-26T10:51:17.501Z,84.39
2023-04-26T10:54:08.606Z,100.00
2023-04-26T10:56:51.993Z,100.00
2023-04-26T11:02:30.829Z,64.23
2023-04-26T11:05:10.350Z,61.80
2023-04-26T11:07:41.145Z,68.75
2023-04-26T11:10:31.461Z,70.06
2023-04-26T11:13:04.715Z,61.01
2023-04-26T11:15:34.337Z,58.96
2023-04-26T11:18:06.140Z,54.24
2023-04-26T11:20:40.767Z,56.07
2023-04-26T11:23:22.198Z,55.71
2023-04-26T11:25:57.505Z,52.18
2023-04-26T11:28:28.781Z,50.57
2023-04-26T11:31:01.144Z,49.17
2023-04-26T11:33:38.650Z,48.13
2023-04-26T11:36:17.502Z,44.53
2023-04-26T11:38:45.479Z,47.16
2023-04-26T11:41:13.187Z,51.45
2023-04-26T11:43:56.067Z,43.19
2023-04-26T11:46:27.769Z,43.01
2023-04-26T11:49:02.644Z,48.57
2023-04-26T11:51:40.103Z,45.33
2023-04-26T11:54:09.839Z,56.77
2023-04-26T11:56:43.590Z,48.41
2023-04-26T11:59:14.210Z,54.88
2023-04-26T12:01:54.331Z,49.11
2023-04-26T12:04:33.591Z,58.98
2023-04-26T12:07:10.770Z,51.55
2023-04-26T12:09:45.244Z,67.46
2023-04-26T12:12:23.305Z,60.31
2023-04-26T12:14:51.090Z,56.05
2023-04-26T12:17:22.165Z,67.55
2023-04-26T12:19:54.811Z,75.81
2023-04-26T12:22:23.807Z,63.64
2023-04-26T12:24:56.636Z,51.86
2023-04-26T12:27:33.712Z,56.40
2023-04-26T12:33:17.475Z,50.90
2023-04-26T12:36:01.865Z,50.69
2023-04-26T12:38:52.334Z,51.12
2023-04-26T12:41:29.283Z,43.75
2023-04-26T12:43:58.573Z,55.06
2023-04-26T12:46:37.523Z,55.84
2023-04-26T12:49:09.051Z,51.05
2023-04-26T12:51:41.243Z,51.59
2023-04-26T12:57:08.684Z,55.12
2023-04-26T12:59:47.328Z,46.39
2023-04-26T13:02:17.134Z,42.68
2023-04-26T13:04:56.480Z,43.53
2023-04-26T13:07:27.083Z,54.97
2023-04-26T13:10:01.000Z,60.29
2023-04-26T13:12:31.929Z,57.83
2023-04-26T13:15:05.927Z,52.93
2023-04-26T13:17:36.794Z,46.09
2023-04-26T13:20:15.003Z,43.74
2023-04-26T13:22:43.891Z,42.02
2023-04-26T13:25:14.225Z,42.65
2023-04-26T13:27:44.842Z,48.85
2023-04-26T13:30:16.631Z,43.31
2023-04-26T13:32:48.127Z,55.60
2023-04-26T13:35:29.819Z,42.66
2023-04-26T13:38:02.258Z,37.42
2023-04-26T13:40:36.006Z,37.63
2023-04-26T13:43:04.878Z,35.05
2023-04-26T13:45:41.680Z,29.46
2023-04-26T13:48:14.122Z,30.36
2023-04-26T13:53:30.030Z,27.91
2023-04-26T13:58:44.940Z,31.07
2023-04-26T14:01:27.558Z,33.60
2023-04-26T14:04:05.450Z,34.75
2023-04-26T14:06:41.165Z,38.18
2023-04-26T14:09:12.690Z,36.71
2023-04-26T14:12:04.423Z,38.88
2023-04-26T14:14:35.811Z,37.51
2023-04-26T14:17:07.004Z,33.34
2023-04-26T14:19:38.123Z,37.29
2023-04-26T14:22:17.299Z,34.83
2023-04-26T14:24:51.998Z,32.94
2023-04-26T14:27:22.286Z,34.61
2023-04-26T14:29:56.856Z,35.18
2023-04-26T14:32:30.698Z,36.37
2023-04-26T14:35:09.545Z,34.52
2023-04-26T14:37:42.796Z,32.61
2023-04-26T14:40:35.639Z,30.99
2023-04-26T14:43:07.167Z,32.18
2023-04-26T14:48:13.560Z,36.16
2023-04-26T14:50:43.958Z,36.36
2023-04-26T14:53:27.576Z,37.21
2023-04-26T14:56:05.140Z,39.24
2023-04-26T14:58:38.725Z,37.23
2023-04-26T15:01:12.883Z,37.37
2023-04-26T15:03:51.025Z,37.73
2023-04-26T15:06:29.472Z,37.78
2023-04-26T15:08:59.615Z,39.89
2023-04-26T15:11:30.065Z,39.21
2023-04-26T15:14:00.127Z,43.77
2023-04-26T15:16:28.110Z,42.20
2023-04-26T15:18:59.259Z,42.27
2023-04-26T15:21:43.126Z,39.77
2023-04-26T15:24:12.718Z,39.99
2023-04-26T15:26:52.053Z,41.95
2023-04-26T15:29:20.283Z,40.45
2023-04-26T15:31:51.561Z,40.18
2023-04-26T15:34:31.676Z,41.83
2023-04-26T15:37:08.460Z,40.21
2023-04-26T15:39:36.887Z,41.72
2023-04-26T15:42:11.559Z,42.08
2023-04-26T15:44:41.836Z,42.44
2023-04-26T15:47:13.744Z,38.51
2023-04-26T15:49:44.683Z,39.39
2023-04-26T15:52:18.256Z,39.11
2023-04-26T15:54:46.039Z,39.58
2023-04-26T15:57:14.877Z,44.51
2023-04-26T15:59:46.666Z,40.10
2023-04-26T16:02:39.010Z,41.85
2023-04-26T16:05:28.663Z,39.68
2023-04-26T16:07:58.444Z,36.96
2023-04-26T16:10:27.676Z,35.14
2023-04-26T16:13:00.132Z,35.94
2023-04-26T16:15:33.752Z,37.34
2023-04-26T16:18:04.969Z,40.39
2023-04-26T16:20:38.453Z,44.72
2023-04-26T16:23:12.510Z,45.87
2023-04-26T16:25:42.761Z,48.80
2023-04-26T16:28:28.279Z,50.07
2023-04-26T16:30:58.512Z,57.89
2023-04-26T16:33:36.316Z,59.90
2023-04-26T16:36:13.149Z,63.72
2023-04-26T16:38:49.205Z,63.19
2023-04-26T16:41:36.222Z,62.40
2023-04-26T16:44:24.192Z,67.33
2023-04-26T16:47:09.256Z,72.71
2023-04-26T16:49:38.541Z,75.05
2023-04-26T16:52:11.603Z,77.86
2023-04-26T16:54:42.118Z,86.56
2023-04-26T16:59:57.687Z,95.64
2023-04-26T17:02:29.395Z,77.09
2023-04-26T17:05:00.071Z,79.08
2023-04-26T17:07:34.652Z,83.00
2023-04-26T17:10:07.227Z,85.75
2023-04-26T17:12:43.986Z,79.16
2023-04-26T17:15:15.241Z,80.93
2023-04-26T17:17:44.412Z,93.92
2023-04-26T17:20:27.834Z,93.52
2023-04-26T17:22:58.946Z,91.80
2023-04-26T17:25:33.714Z,100.00
2023-04-26T17:28:06.356Z,100.00
2023-04-26T17:33:46.224Z,100.00
2023-04-26T17:36:16.494Z,100.00
2023-04-26T17:38:49.030Z,100.00
2023-04-26T17:41:18.778Z,100.00
2023-04-26T17:43:49.893Z,100.00
2023-04-26T17:46:17.692Z,100.00
2023-04-26T17:48:53.588Z,100.00
2023-04-26T17:51:21.886Z,100.00
2023-04-26T17:53:53.773Z,100.00
2023-04-26T17:56:26.667Z,100.00
2023-04-26T17:59:02.261Z,100.00
2023-04-26T18:01:35.060Z,100.00
2023-04-26T18:04:08.776Z,100.00
2023-04-26T18:06:44.018Z,100.00
2023-04-26T18:09:14.451Z,100.00
2023-04-26T18:11:49.880Z,100.00
2023-04-26T18:14:20.538Z,100.00
2023-04-26T18:16:50.167Z,100.00
2023-04-26T18:19:37.042Z,100.00
2023-04-26T18:22:06.366Z,100.00
2023-04-26T18:24:43.877Z,100.00
2023-04-26T18:27:13.948Z,100.00
2023-04-26T18:29:45.656Z,100.00
2023-04-26T18:34:56.500Z,100.00
2023-04-26T18:37:33.433Z,100.00
2023-04-26T18:40:04.987Z,100.00
2023-04-26T18:42:37.467Z,100.00
2023-04-26T18:47:59.549Z,100.00
2023-04-26T18:50:36.734Z,100.00
2023-04-26T18:53:21.779Z,100.00
2023-04-26T18:55:49.985Z,100.00
2023-04-26T18:58:20.634Z,100.00
2023-04-26T19:00:51.134Z,100.00
2023-04-26T19:03:30.703Z,100.00
2023-04-26T19:05:59.885Z,100.00
2023-04-26T19:08:37.215Z,100.00
2023-04-26T19:11:08.067Z,100.00
2023-04-26T19:13:36.806Z,100.00
2023-04-26T19:16:12.436Z,100.00
2023-04-26T19:18:44.398Z,100.00
2023-04-26T19:21:31.869Z,100.00
2023-04-26T19:24:02.388Z,100.00
2023-04-26T19:26:33.296Z,100.00
2023-04-26T19:29:11.526Z,100.00
2023-04-26T19:31:45.599Z,100.00
2023-04-26T19:34:16.016Z,100.00
2023-04-26T19:36:51.364Z,100.00
2023-04-26T19:39:23.916Z,100.00
2023-04-26T19:41:55.298Z,100.00
2023-04-26T19:44:28.553Z,100.00
2023-04-26T19:49:40.528Z,100.00
2023-04-26T19:52:09.334Z,100.00
2023-04-26T19:54:40.205Z,100.00
2023-04-26T19:57:12.112Z,100.00
2023-04-26T19:59:43.201Z,100.00
2023-04-26T20:02:28.133Z,100.00
2023-04-26T20:04:57.435Z,100.00
2023-04-26T20:07:28.222Z,100.00
2023-04-26T20:10:07.079Z,100.00
2023-04-26T20:12:35.015Z,100.00
2023-04-26T20:15:10.007Z,100.00
2023-04-26T20:17:42.361Z,100.00
2023-04-26T20:20:17.965Z,100.00
2023-04-26T20:22:45.846Z,100.00
2023-04-26T20:25:20.033Z,100.00
2023-04-26T20:27:50.776Z,100.00
2023-04-26T20:30:25.374Z,100.00
2023-04-26T20:32:56.817Z,100.00
2023-04-26T20:35:29.461Z,100.00
2023-04-26T20:40:43.658Z,100.00
2023-04-26T20:43:17.049Z,100.00
2023-04-26T20:45:48.794Z,100.00
2023-04-26T20:48:27.700Z,100.00
2023-04-26T20:51:05.356Z,100.00
2023-04-26T20:53:55.654Z,100.00
2023-04-26T20:56:27.421Z,100.00
2023-04-26T20:58:57.054Z,100.00
2023-04-26T21:01:27.883Z,100.00
2023-04-26T21:03:58.903Z,100.00
2023-04-26T21:06:31.306Z,100.00
2023-04-26T21:09:08.115Z,100.00
2023-04-26T21:11:38.964Z,100.00
2023-04-26T21:14:09.299Z,100.00
2023-04-26T21:16:38.611Z,100.00
2023-04-26T21:19:15.284Z,100.00
2023-04-26T21:21:54.307Z,100.00
2023-04-26T21:24:30.912Z,100.00
2023-04-26T21:27:01.911Z,100.00
2023-04-26T21:29:35.083Z,100.00
2023-04-26T21:32:12.622Z,100.00
2023-04-26T21:34:44.362Z,100.00
2023-04-26T21:37:16.679Z,100.00
2023-04-26T21:42:29.936Z,100.00
2023-04-26T21:44:59.965Z,100.00
2023-04-26T21:47:41.843Z,100.00
2023-04-26T21:50:11.639Z,100.00
2023-04-26T21:52:48.009Z,100.00
2023-04-26T21:55:15.802Z,100.00
2023-04-26T21:58:01.328Z,100.00
2023-04-26T22:00:31.372Z,100.00
2023-04-26T22:03:19.419Z,100.00
2023-04-26T22:06:09.479Z,100.00
2023-04-26T22:08:39.847Z,100.00
2023-04-26T22:11:11.072Z,100.00
2023-04-26T22:13:42.316Z,100.00
2023-04-26T22:16:13.793Z,100.00
2023-04-26T22:18:43.859Z,100.00
2023-04-26T22:21:14.079Z,100.00
2023-04-26T22:23:42.901Z,100.00
2023-04-26T22:26:21.793Z,100.00
2023-04-26T22:31:42.313Z,100.00
2023-04-26T22:34:13.664Z,100.00
2023-04-26T22:39:35.627Z,100.00
2023-04-26T22:42:13.085Z,100.00
2023-04-26T22:44:42.687Z,100.00
2023-04-26T22:47:11.103Z,100.00
2023-04-26T22:49:44.880Z,100.00
2023-04-26T22:52:28.081Z,100.00
2023-04-26T22:55:06.430Z,100.00
2023-04-26T22:57:37.543Z,100.00
2023-04-26T23:00:15.004Z,100.00
2023-04-26T23:02:45.202Z,100.00
2023-04-26T23:05:33.620Z,100.00
2023-04-26T23:08:16.236Z,100.00
2023-04-26T23:10:57.956Z,100.00
2023-04-26T23:13:32.118Z,100.00
2023-04-26T23:16:02.334Z,100.00
2023-04-26T23:18:40.129Z,100.00
2023-04-26T23:21:25.844Z,100.00
2023-04-26T23:23:58.452Z,100.00
2023-04-26T23:26:33.384Z,100.00
2023-04-26T23:29:03.999Z,100.00
2023-04-26T23:31:45.024Z,100.00
2023-04-26T23:34:16.481Z,100.00
2023-04-26T23:36:46.368Z,100.00
2023-04-26T23:39:31.559Z,100.00
2023-04-26T23:42:04.187Z,100.00
2023-04-26T23:44:34.987Z,100.00
2023-04-26T23:47:05.517Z,100.00
2023-04-26T23:49:37.127Z,100.00
2023-04-26T23:52:07.671Z,100.00
2023-04-26T23:57:22.205Z,100.00
2023-04-26T23:59:59.534Z,100.00
